createdAt,value
2023-06-03T00:00:51.556Z,13.97
2023-06-03T00:03:40.528Z,14.01
2023-06-03T00:06:08.892Z,13.99
2023-06-03T00:08:36.861Z,13.94
2023-06-03T00:11:05.228Z,13.88
2023-06-03T00:13:33.538Z,13.88
2023-06-03T00:16:01.693Z,13.92
2023-06-03T00:18:29.770Z,13.89
2023-06-03T00:20:57.771Z,13.84
2023-06-03T00:23:26.562Z,13.79
2023-06-03T00:25:54.984Z,13.72
2023-06-03T00:28:22.913Z,13.61
2023-06-03T00:30:52.127Z,13.58
2023-06-03T00:33:21.296Z,13.55
2023-06-03T00:35:49.409Z,13.52
2023-06-03T00:38:18.025Z,13.50
2023-06-03T00:40:47.414Z,13.48
2023-06-03T00:43:15.717Z,13.48
2023-06-03T00:45:44.148Z,13.52
2023-06-03T00:48:13.513Z,13.61
2023-06-03T00:50:42.379Z,13.65
2023-06-03T00:53:10.761Z,13.55
2023-06-03T00:55:38.936Z,13.38
2023-06-03T00:58:07.927Z,13.28
2023-06-03T01:00:36.251Z,13.30
2023-06-03T01:03:04.647Z,13.30
2023-06-03T01:05:32.926Z,13.32
2023-06-03T01:08:28.036Z,13.32
2023-06-03T01:11:22.230Z,13.31
2023-06-03T01:14:03.396Z,13.28
2023-06-03T01:16:32.349Z,13.21
2023-06-03T01:19:02.577Z,13.13
2023-06-03T01:21:35.726Z,13.03
2023-06-03T01:24:04.474Z,12.95
2023-06-03T01:26:32.565Z,12.90
2023-06-03T01:29:00.932Z,12.87
2023-06-03T01:31:28.873Z,12.89
2023-06-03T01:33:57.615Z,12.96
2023-06-03T01:36:25.669Z,13.04
2023-06-03T01:38:55.388Z,13.06
2023-06-03T01:41:24.275Z,13.00
2023-06-03T01:43:52.279Z,12.93
2023-06-03T01:46:21.109Z,12.85
2023-06-03T01:48:49.092Z,12.78
2023-06-03T01:51:17.047Z,12.76
2023-06-03T01:53:45.063Z,12.71
2023-06-03T01:56:13.098Z,12.68
2023-06-03T01:58:41.479Z,12.71
2023-06-03T02:01:09.775Z,12.72
2023-06-03T02:03:37.951Z,12.76
2023-06-03T02:06:06.994Z,12.83
2023-06-03T02:08:37.454Z,12.83
2023-06-03T02:11:05.920Z,12.76
2023-06-03T02:13:33.934Z,12.67
2023-06-03T02:16:01.987Z,12.66
2023-06-03T02:18:30.973Z,12.72
2023-06-03T02:20:59.098Z,12.78
2023-06-03T02:23:28.582Z,12.81
2023-06-03T02:25:57.510Z,12.78
2023-06-03T02:28:27.610Z,12.72
2023-06-03T02:30:55.644Z,12.71
2023-06-03T02:33:24.384Z,12.77
2023-06-03T02:35:52.331Z,12.82
2023-06-03T02:38:21.453Z,12.84
2023-06-03T02:40:49.551Z,12.83
2023-06-03T02:43:18.076Z,12.83
2023-06-03T02:45:46.381Z,12.80
2023-06-03T02:48:15.064Z,12.80
2023-06-03T02:50:43.039Z,12.87
2023-06-03T02:53:12.624Z,12.94
2023-06-03T02:55:40.816Z,12.97
2023-06-03T02:58:08.767Z,12.97
2023-06-03T03:00:36.790Z,13.00
2023-06-03T03:03:05.288Z,13.18
2023-06-03T03:05:35.367Z,13.39
2023-06-03T03:08:05.085Z,13.43
2023-06-03T03:10:33.096Z,13.33
2023-06-03T03:13:02.052Z,13.32
2023-06-03T03:15:30.140Z,13.33
2023-06-03T03:17:58.346Z,13.34
2023-06-03T03:20:26.785Z,13.42
2023-06-03T03:22:55.716Z,13.43
2023-06-03T03:25:25.238Z,13.45
2023-06-03T03:27:53.508Z,13.52
2023-06-03T03:30:21.751Z,13.63
2023-06-03T03:32:49.861Z,13.75
2023-06-03T03:35:22.538Z,13.89
2023-06-03T03:38:03.449Z,14.05
2023-06-03T03:40:34.274Z,14.20
2023-06-03T03:43:04.389Z,14.35
2023-06-03T03:45:37.637Z,14.50
2023-06-03T03:48:09.439Z,14.64
2023-06-03T03:50:44.987Z,14.79
2023-06-03T03:53:19.948Z,15.00
2023-06-03T03:55:50.989Z,15.18
2023-06-03T03:58:30.841Z,15.24
2023-06-03T04:01:03.022Z,15.37
2023-06-03T04:03:37.195Z,15.56
2023-06-03T04:06:05.930Z,15.80
2023-06-03T04:08:39.992Z,16.01
2023-06-03T04:11:10.739Z,16.22
2023-06-03T04:13:41.736Z,16.39
2023-06-03T04:16:18.921Z,16.44
2023-06-03T04:18:47.050Z,16.54
2023-06-03T04:21:20.297Z,16.60
2023-06-03T04:23:48.553Z,16.75
2023-06-03T04:26:17.332Z,16.89
2023-06-03T04:28:46.030Z,17.10
2023-06-03T04:31:16.098Z,17.28
2023-06-03T04:33:44.431Z,17.42
2023-06-03T04:36:13.218Z,17.55
2023-06-03T04:38:42.545Z,17.72
2023-06-03T04:41:15.513Z,17.88
2023-06-03T04:43:49.086Z,18.00
2023-06-03T04:46:17.525Z,18.13
2023-06-03T04:48:46.796Z,18.25
2023-06-03T04:51:15.672Z,18.33
2023-06-03T04:53:44.195Z,18.35
2023-06-03T04:56:14.209Z,18.41
2023-06-03T04:58:43.361Z,18.56
2023-06-03T05:01:14.423Z,18.69
2023-06-03T05:03:45.840Z,18.80
2023-06-03T05:06:14.314Z,18.81
2023-06-03T05:08:43.934Z,19.04
2023-06-03T05:11:12.345Z,19.36
2023-06-03T05:13:41.601Z,19.67
2023-06-03T05:16:10.124Z,19.57
2023-06-03T05:18:40.296Z,19.48
2023-06-03T05:21:09.017Z,19.56
2023-06-03T05:23:37.075Z,19.68
2023-06-03T05:26:06.193Z,19.79
2023-06-03T05:28:34.234Z,20.00
2023-06-03T05:31:02.175Z,20.28
2023-06-03T05:33:32.937Z,20.47
2023-06-03T05:36:14.684Z,20.44
2023-06-03T05:38:43.827Z,20.42
2023-06-03T05:41:13.088Z,20.52
2023-06-03T05:43:41.432Z,20.64
2023-06-03T05:46:10.530Z,20.87
2023-06-03T05:48:38.693Z,21.10
2023-06-03T05:51:07.309Z,21.25
2023-06-03T05:53:36.242Z,21.21
2023-06-03T05:56:31.932Z,21.27
2023-06-03T05:59:00.631Z,21.43
2023-06-03T06:01:31.811Z,21.64
2023-06-03T06:04:01.408Z,21.92
2023-06-03T06:06:29.795Z,22.17
2023-06-03T06:08:58.267Z,22.27
2023-06-03T06:11:28.079Z,22.42
2023-06-03T06:13:56.551Z,22.55
2023-06-03T06:16:24.947Z,22.68
2023-06-03T06:18:53.484Z,22.83
2023-06-03T06:21:21.747Z,22.84
2023-06-03T06:23:50.029Z,22.86
2023-06-03T06:26:18.142Z,23.07
2023-06-03T06:28:47.144Z,23.29
2023-06-03T06:31:17.712Z,23.35
2023-06-03T06:33:50.140Z,23.49
2023-06-03T06:36:34.270Z,23.54
2023-06-03T06:39:37.130Z,23.70
2023-06-03T06:42:13.747Z,23.79
2023-06-03T06:44:50.855Z,23.95
2023-06-03T06:47:24.348Z,24.07
2023-06-03T06:49:57.711Z,24.32
2023-06-03T06:52:27.806Z,24.57
2023-06-03T06:54:56.750Z,24.85
2023-06-03T06:57:26.301Z,24.94
2023-06-03T06:59:55.181Z,25.06
2023-06-03T07:02:23.870Z,25.25
2023-06-03T07:04:52.638Z,25.40
2023-06-03T07:07:21.830Z,25.67
2023-06-03T07:09:50.198Z,25.65
2023-06-03T07:12:18.553Z,25.68
2023-06-03T07:14:46.907Z,25.70
2023-06-03T07:17:16.044Z,25.98
2023-06-03T07:19:43.976Z,26.02
2023-06-03T07:22:12.873Z,25.85
2023-06-03T07:24:42.267Z,25.89
2023-06-03T07:27:22.022Z,26.14
2023-06-03T07:29:49.982Z,26.41
2023-06-03T07:32:22.914Z,26.63
2023-06-03T07:34:51.153Z,26.74
2023-06-03T07:37:19.133Z,26.50
2023-06-03T07:39:47.621Z,26.51
2023-06-03T07:42:29.015Z,26.28
2023-06-03T07:45:06.277Z,26.11
2023-06-03T07:47:34.603Z,26.40
2023-06-03T07:50:04.051Z,26.75
2023-06-03T07:52:38.431Z,26.78
2023-06-03T07:55:09.205Z,26.70
2023-06-03T07:57:43.805Z,26.56
2023-06-03T08:00:16.425Z,26.51
2023-06-03T08:02:46.040Z,26.56
2023-06-03T08:05:16.146Z,26.47
2023-06-03T08:07:45.096Z,26.57
2023-06-03T08:10:23.643Z,26.25
2023-06-03T08:12:51.988Z,25.76
2023-06-03T08:15:28.668Z,25.86
2023-06-03T08:17:57.382Z,26.03
2023-06-03T08:20:27.630Z,25.89
2023-06-03T08:22:57.211Z,25.70
2023-06-03T08:25:25.652Z,25.73
2023-06-03T08:27:53.660Z,25.55
2023-06-03T08:30:22.811Z,25.82
2023-06-03T08:32:52.457Z,25.96
2023-06-03T08:35:22.448Z,25.75
2023-06-03T08:37:51.109Z,25.68
2023-06-03T08:40:19.410Z,25.51
2023-06-03T08:42:49.948Z,25.53
2023-06-03T08:45:22.971Z,25.26
2023-06-03T08:48:09.952Z,24.91
2023-06-03T08:50:38.135Z,24.71
2023-06-03T08:53:10.499Z,24.30
2023-06-03T08:55:40.383Z,24.11
2023-06-03T08:58:26.904Z,24.03
2023-06-03T09:01:02.480Z,23.77
2023-06-03T09:03:31.358Z,23.52
2023-06-03T09:06:01.745Z,23.52
2023-06-03T09:08:32.391Z,23.53
2023-06-03T09:11:01.076Z,23.52
2023-06-03T09:13:31.747Z,23.63
2023-06-03T09:16:00.455Z,23.80
2023-06-03T09:18:29.122Z,23.88
2023-06-03T09:20:57.914Z,23.98
2023-06-03T09:23:29.104Z,24.11
2023-06-03T09:25:57.220Z,24.16
2023-06-03T09:28:25.190Z,24.28
2023-06-03T09:30:54.376Z,24.40
2023-06-03T09:33:23.434Z,24.52
2023-06-03T09:36:14.624Z,24.66
2023-06-03T09:38:51.535Z,24.83
2023-06-03T09:41:22.588Z,25.13
2023-06-03T09:44:03.585Z,25.78
2023-06-03T09:46:35.216Z,26.30
2023-06-03T09:49:20.471Z,26.83
2023-06-03T09:51:53.114Z,26.89
2023-06-03T09:54:27.010Z,26.88
2023-06-03T09:56:55.084Z,27.12
2023-06-03T09:59:26.487Z,27.20
2023-06-03T10:01:56.954Z,27.25
2023-06-03T10:04:45.498Z,27.29
2023-06-03T10:07:16.198Z,27.56
2023-06-03T10:09:48.699Z,27.99
2023-06-03T10:12:29.417Z,27.85
2023-06-03T10:15:01.183Z,27.59
2023-06-03T10:17:29.712Z,27.36
2023-06-03T10:19:57.739Z,27.27
2023-06-03T10:22:27.386Z,27.43
2023-06-03T10:24:57.886Z,27.56
2023-06-03T10:27:28.348Z,27.51
2023-06-03T10:29:58.525Z,27.59
2023-06-03T10:32:27.599Z,27.83
2023-06-03T10:35:00.628Z,28.03
2023-06-03T10:37:30.494Z,28.33
2023-06-03T10:40:01.177Z,28.68
2023-06-03T10:42:30.394Z,29.06
2023-06-03T10:44:58.581Z,29.41
2023-06-03T10:47:29.814Z,29.17
2023-06-03T10:50:25.533Z,28.67
2023-06-03T10:52:53.463Z,28.50
2023-06-03T10:56:00.577Z,28.63
2023-06-03T10:58:30.138Z,28.88
2023-06-03T11:01:07.539Z,29.21
2023-06-03T11:04:04.011Z,29.44
2023-06-03T11:06:32.254Z,29.62
2023-06-03T11:09:06.877Z,29.78
2023-06-03T11:11:41.660Z,30.07
2023-06-03T11:14:35.330Z,30.06
2023-06-03T11:17:03.288Z,29.86
2023-06-03T11:19:33.248Z,29.63
2023-06-03T11:22:08.894Z,29.21
2023-06-03T11:24:40.349Z,28.83
2023-06-03T11:27:14.363Z,28.70
2023-06-03T11:29:46.034Z,28.45
2023-06-03T11:32:18.193Z,28.21
2023-06-03T11:34:48.010Z,28.04
2023-06-03T11:37:18.976Z,27.89
2023-06-03T11:40:08.734Z,27.82
2023-06-03T11:42:46.825Z,27.56
2023-06-03T11:45:28.298Z,27.07
2023-06-03T11:47:57.677Z,27.01
2023-06-03T11:50:32.097Z,27.09
2023-06-03T11:53:00.538Z,26.88
2023-06-03T11:55:33.959Z,26.57
2023-06-03T11:58:10.054Z,26.61
2023-06-03T12:00:39.356Z,26.94
2023-06-03T12:03:15.869Z,27.22
2023-06-03T12:05:54.367Z,27.24
2023-06-03T12:08:22.561Z,27.07
2023-06-03T12:10:50.878Z,26.77
2023-06-03T12:13:18.883Z,26.41
2023-06-03T12:15:50.358Z,26.26
2023-06-03T12:18:18.366Z,26.20
2023-06-03T12:20:49.236Z,26.00
2023-06-03T12:23:25.592Z,25.65
2023-06-03T12:25:57.005Z,25.42
2023-06-03T12:28:28.970Z,25.30
2023-06-03T12:30:57.652Z,25.15
2023-06-03T12:33:39.829Z,24.85
2023-06-03T12:36:08.542Z,24.82
2023-06-03T12:38:55.623Z,24.86
2023-06-03T12:41:24.140Z,24.89
2023-06-03T12:44:00.818Z,24.67
2023-06-03T12:46:30.031Z,24.24
2023-06-03T12:49:13.809Z,23.94
2023-06-03T12:51:42.001Z,23.81
2023-06-03T12:54:10.709Z,23.80
2023-06-03T12:56:38.791Z,23.85
2023-06-03T12:59:08.436Z,23.91
2023-06-03T13:01:37.109Z,23.97
2023-06-03T13:04:05.299Z,24.07
2023-06-03T13:06:33.741Z,24.19
2023-06-03T13:09:01.642Z,24.37
2023-06-03T13:11:29.858Z,24.59
2023-06-03T13:13:58.034Z,24.73
2023-06-03T13:16:26.100Z,24.65
2023-06-03T13:18:54.160Z,24.57
2023-06-03T13:21:22.150Z,24.56
2023-06-03T13:23:50.190Z,24.53
2023-06-03T13:26:18.526Z,24.46
2023-06-03T13:28:46.910Z,24.44
2023-06-03T13:31:15.297Z,24.43
2023-06-03T13:33:43.432Z,24.37
2023-06-03T13:36:11.356Z,24.34
2023-06-03T13:38:39.396Z,24.31
2023-06-03T13:41:09.495Z,24.30
2023-06-03T13:43:38.314Z,24.30
2023-06-03T13:46:06.517Z,24.18
2023-06-03T13:48:34.693Z,23.97
2023-06-03T13:51:02.833Z,23.89
2023-06-03T13:53:32.672Z,23.89
2023-06-03T13:56:00.850Z,24.01
2023-06-03T13:58:29.062Z,24.15
2023-06-03T14:00:57.186Z,24.22
2023-06-03T14:03:25.079Z,24.20
2023-06-03T14:05:53.175Z,24.12
2023-06-03T14:08:21.743Z,24.00
2023-06-03T14:10:50.046Z,24.04
2023-06-03T14:13:18.404Z,24.14
2023-06-03T14:15:46.826Z,24.17
2023-06-03T14:18:16.965Z,24.22
2023-06-03T14:20:45.261Z,24.28
2023-06-03T14:23:14.505Z,24.31
2023-06-03T14:25:42.837Z,24.34
2023-06-03T14:28:11.054Z,24.36
2023-06-03T14:30:57.110Z,24.43
2023-06-03T14:33:27.273Z,24.51
2023-06-03T14:35:56.001Z,24.47
2023-06-03T14:38:25.444Z,24.31
2023-06-03T14:40:53.706Z,24.16
2023-06-03T14:43:21.769Z,24.17
2023-06-03T14:45:49.997Z,24.12
2023-06-03T14:48:18.056Z,24.02
2023-06-03T14:50:46.235Z,23.84
2023-06-03T14:53:14.382Z,23.66
2023-06-03T14:55:45.093Z,23.60
2023-06-03T14:58:13.068Z,23.48
2023-06-03T15:00:41.141Z,23.28
2023-06-03T15:03:09.368Z,23.03
2023-06-03T15:05:37.416Z,22.77
2023-06-03T15:08:05.730Z,22.57
2023-06-03T15:10:35.233Z,22.41
2023-06-03T15:13:03.853Z,22.33
2023-06-03T15:15:31.955Z,22.27
2023-06-03T15:18:00.391Z,22.19
2023-06-03T15:20:28.452Z,22.12
2023-06-03T15:22:56.710Z,22.12
2023-06-03T15:25:24.805Z,22.12
2023-06-03T15:27:53.618Z,22.12
2023-06-03T15:30:23.036Z,22.10
2023-06-03T15:32:51.356Z,22.05
2023-06-03T15:35:21.784Z,22.07
2023-06-03T15:37:49.850Z,22.10
2023-06-03T15:40:17.934Z,22.14
2023-06-03T15:42:46.495Z,22.11
2023-06-03T15:45:14.401Z,22.12
2023-06-03T15:47:42.324Z,22.13
2023-06-03T15:50:11.607Z,22.12
2023-06-03T15:52:39.599Z,22.14
2023-06-03T15:55:08.520Z,22.11
2023-06-03T15:57:36.681Z,22.05
2023-06-03T16:00:05.589Z,22.02
2023-06-03T16:02:34.180Z,21.98
2023-06-03T16:05:02.649Z,21.97
2023-06-03T16:07:32.740Z,21.95
2023-06-03T16:10:01.496Z,21.89
2023-06-03T16:12:29.834Z,21.66
2023-06-03T16:14:58.083Z,21.37
2023-06-03T16:17:26.515Z,21.12
2023-06-03T16:19:54.681Z,21.01
2023-06-03T16:22:22.810Z,20.95
2023-06-03T16:24:51.306Z,20.89
2023-06-03T16:27:19.569Z,20.77
2023-06-03T16:29:47.571Z,20.66
2023-06-03T16:32:16.323Z,20.52
2023-06-03T16:34:44.598Z,20.40
2023-06-03T16:37:13.079Z,20.27
2023-06-03T16:39:41.766Z,20.14
2023-06-03T16:42:10.240Z,20.04
2023-06-03T16:44:38.338Z,19.91
2023-06-03T16:47:06.473Z,19.81
2023-06-03T16:49:34.675Z,19.73
2023-06-03T16:52:02.999Z,19.67
2023-06-03T16:54:31.125Z,19.59
2023-06-03T16:56:59.177Z,19.49
2023-06-03T16:59:27.097Z,19.41
2023-06-03T17:01:55.494Z,19.34
2023-06-03T17:04:23.792Z,19.28
2023-06-03T17:06:51.989Z,19.20
2023-06-03T17:09:21.082Z,19.13
2023-06-03T17:11:51.143Z,19.06
2023-06-03T17:14:19.172Z,19.01
2023-06-03T17:16:47.476Z,18.93
2023-06-03T17:19:15.949Z,18.85
2023-06-03T17:21:44.121Z,18.79
2023-06-03T17:24:12.275Z,18.71
2023-06-03T17:26:40.349Z,18.66
2023-06-03T17:29:08.620Z,18.61
2023-06-03T17:31:36.891Z,18.56
2023-06-03T17:34:05.228Z,18.51
2023-06-03T17:36:33.462Z,18.44
2023-06-03T17:39:01.647Z,18.39
2023-06-03T17:41:29.804Z,18.36
2023-06-03T17:43:58.308Z,18.29
2023-06-03T17:46:26.184Z,18.27
2023-06-03T17:48:54.610Z,18.22
2023-06-03T17:51:22.751Z,18.19
2023-06-03T17:53:53.970Z,18.14
2023-06-03T17:56:48.320Z,18.10
2023-06-03T17:59:16.482Z,18.06
2023-06-03T18:01:44.479Z,18.03
2023-06-03T18:04:13.692Z,17.99
2023-06-03T18:06:41.788Z,17.99
2023-06-03T18:09:09.887Z,17.99
2023-06-03T18:11:37.884Z,18.01
2023-06-03T18:14:05.836Z,18.01
2023-06-03T18:16:34.163Z,18.02
2023-06-03T18:19:02.296Z,17.98
2023-06-03T18:21:31.195Z,17.94
2023-06-03T18:23:59.242Z,17.89
2023-06-03T18:26:29.058Z,17.85
2023-06-03T18:28:57.359Z,17.83
2023-06-03T18:31:25.741Z,17.76
2023-06-03T18:33:53.848Z,17.70
2023-06-03T18:36:22.049Z,17.65
2023-06-03T18:38:49.966Z,17.57
2023-06-03T18:41:18.225Z,17.50
2023-06-03T18:43:46.209Z,17.45
2023-06-03T18:46:14.406Z,17.39
2023-06-03T18:48:42.656Z,17.32
2023-06-03T18:51:10.804Z,17.24
2023-06-03T18:53:38.778Z,17.15
2023-06-03T18:56:07.276Z,17.10
2023-06-03T18:58:35.528Z,17.08
2023-06-03T19:01:03.730Z,17.06
2023-06-03T19:03:32.645Z,17.03
2023-06-03T19:06:00.926Z,17.00
2023-06-03T19:08:28.892Z,16.99
2023-06-03T19:10:56.981Z,16.98
2023-06-03T19:13:25.036Z,16.98
2023-06-03T19:15:53.764Z,16.94
2023-06-03T19:18:22.108Z,16.91
2023-06-03T19:20:50.683Z,16.91
2023-06-03T19:23:19.181Z,16.91
2023-06-03T19:25:47.337Z,16.88
2023-06-03T19:28:15.341Z,16.86
2023-06-03T19:30:44.445Z,16.85
2023-06-03T19:33:16.189Z,16.86
2023-06-03T19:35:44.787Z,16.83
2023-06-03T19:38:12.724Z,16.83
2023-06-03T19:40:40.756Z,16.85
2023-06-03T19:43:09.371Z,16.87
2023-06-03T19:45:37.417Z,16.88
2023-06-03T19:48:06.412Z,16.91
2023-06-03T19:50:34.718Z,16.92
2023-06-03T19:53:03.215Z,16.93
2023-06-03T19:55:31.375Z,16.93
2023-06-03T19:57:59.602Z,16.93
2023-06-03T20:00:27.581Z,16.92
2023-06-03T20:02:55.825Z,16.93
2023-06-03T20:05:24.266Z,16.93
2023-06-03T20:07:52.354Z,16.93
2023-06-03T20:10:21.313Z,16.95
2023-06-03T20:12:49.294Z,16.93
2023-06-03T20:15:17.279Z,16.91
2023-06-03T20:17:46.243Z,16.88
2023-06-03T20:20:17.723Z,16.85
2023-06-03T20:22:46.001Z,16.84
2023-06-03T20:25:13.993Z,16.86
2023-06-03T20:27:41.885Z,16.87
2023-06-03T20:30:10.523Z,16.90
2023-06-03T20:32:38.519Z,16.94
2023-06-03T20:35:07.602Z,16.91
2023-06-03T20:37:35.916Z,16.92
2023-06-03T20:40:05.256Z,16.97
2023-06-03T20:42:33.318Z,17.04
2023-06-03T20:45:01.571Z,17.10
2023-06-03T20:47:29.681Z,17.13
2023-06-03T20:49:57.705Z,17.14
2023-06-03T20:52:25.658Z,17.14
2023-06-03T20:54:54.048Z,17.10
2023-06-03T20:57:22.540Z,17.02
2023-06-03T20:59:50.450Z,16.97
2023-06-03T21:02:18.513Z,16.96
2023-06-03T21:04:46.554Z,16.94
2023-06-03T21:07:14.572Z,16.89
2023-06-03T21:09:42.759Z,16.87
2023-06-03T21:12:10.810Z,16.87
2023-06-03T21:14:38.675Z,16.86
2023-06-03T21:17:07.425Z,16.83
2023-06-03T21:19:35.566Z,16.79
2023-06-03T21:22:03.701Z,16.78
2023-06-03T21:24:31.702Z,16.75
2023-06-03T21:27:01.643Z,16.69
2023-06-03T21:29:29.564Z,16.65
2023-06-03T21:31:57.621Z,16.61
2023-06-03T21:34:26.083Z,16.61
2023-06-03T21:36:54.340Z,16.67
2023-06-03T21:39:22.457Z,16.71
2023-06-03T21:41:52.702Z,16.75
2023-06-03T21:44:21.124Z,16.74
2023-06-03T21:46:49.369Z,16.73
2023-06-03T21:49:18.054Z,16.75
2023-06-03T21:51:46.311Z,16.74
2023-06-03T21:54:14.438Z,16.74
2023-06-03T21:56:43.862Z,16.72
2023-06-03T21:59:12.518Z,16.66
2023-06-03T22:01:40.539Z,16.59
2023-06-03T22:04:09.035Z,16.52
2023-06-03T22:06:37.259Z,16.45
2023-06-03T22:09:05.409Z,16.38
2023-06-03T22:11:33.430Z,16.31
2023-06-03T22:14:01.987Z,16.28
2023-06-03T22:16:30.106Z,16.22
2023-06-03T22:18:58.355Z,16.19
2023-06-03T22:21:26.592Z,16.16
2023-06-03T22:23:54.592Z,16.16
2023-06-03T22:26:23.962Z,16.16
2023-06-03T22:28:52.094Z,16.12
2023-06-03T22:31:20.505Z,16.11
2023-06-03T22:33:48.876Z,16.08
2023-06-03T22:36:17.106Z,16.06
2023-06-03T22:38:45.223Z,16.04
2023-06-03T22:41:13.296Z,16.03
2023-06-03T22:43:41.397Z,16.02
2023-06-03T22:46:09.543Z,16.02
2023-06-03T22:48:37.482Z,16.03
2023-06-03T22:51:07.309Z,16.04
2023-06-03T22:53:35.787Z,16.02
2023-06-03T22:56:04.279Z,16.00
2023-06-03T22:58:32.378Z,15.97
2023-06-03T23:01:01.204Z,15.92
2023-06-03T23:03:29.395Z,15.90
2023-06-03T23:05:57.542Z,15.90
2023-06-03T23:08:25.860Z,15.90
2023-06-03T23:10:53.872Z,15.92
2023-06-03T23:13:21.886Z,15.91
2023-06-03T23:15:49.962Z,15.87
2023-06-03T23:18:17.961Z,15.82
2023-06-03T23:20:46.106Z,15.81
2023-06-03T23:23:14.134Z,15.80
2023-06-03T23:25:42.264Z,15.78
2023-06-03T23:28:10.234Z,15.75
2023-06-03T23:30:38.494Z,15.72
2023-06-03T23:33:10.165Z,15.67
2023-06-03T23:35:38.200Z,15.63
2023-06-03T23:38:06.588Z,15.60
2023-06-03T23:40:34.798Z,15.59
2023-06-03T23:43:06.276Z,15.57
2023-06-03T23:45:34.736Z,15.54
2023-06-03T23:48:02.960Z,15.52
2023-06-03T23:50:31.090Z,15.50
2023-06-03T23:52:59.186Z,15.49
2023-06-03T23:55:27.389Z,15.49
2023-06-03T23:57:55.607Z,15.49
